sensor_id;sensor_type;location;lat;lon;timestamp;pressure;altitude;pressure_sealevel;temperature;humidity
25658;BME280;13517;59.320;18.042;2023-10-13T00:00:27;99923.66;;;5.44;100.00
25658;BME280;13517;59.320;18.042;2023-10-13T00:02:57;99967.03;;;5.67;100.00
25658;BME280;13517;59.320;18.042;2023-10-13T00:05:29;100000.91;;;5.84;100.00
25658;BME280;13517;59.320;18.042;2023-10-13T00:08:02;99988.66;;;5.80;100.00
25658;BME280;13517;59.320;18.042;2023-10-13T00:10:31;100000.13;;;5.82;100.00
25658;BME280;13517;59.320;18.042;2023-10-13T00:12:59;100000.06;;;5.83;100.00
25658;BME280;13517;59.320;18.042;2023-10-13T00:15:41;99990.47;;;5.79;100.00
25658;BME280;13517;59.320;18.042;2023-10-13T00:18:25;99982.59;;;5.76;100.00
25658;BME280;13517;59.320;18.042;2023-10-13T00:20:58;99977.94;;;5.64;100.00
25658;BME280;13517;59.320;18.042;2023-10-13T00:23:24;99988.31;;;5.70;100.00
25658;BME280;13517;59.320;18.042;2023-10-13T00:25:53;99960.88;;;5.49;100.00
25658;BME280;13517;59.320;18.042;2023-10-13T00:28:28;99990.13;;;5.53;100.00
25658;BME280;13517;59.320;18.042;2023-10-13T00:31:01;99987.84;;;5.45;100.00
25658;BME280;13517;59.320;18.042;2023-10-13T00:33:30;99945.50;;;5.20;100.00
25658;BME280;13517;59.320;18.042;2023-10-13T00:35:57;99986.66;;;5.35;100.00
25658;BME280;13517;59.320;18.042;2023-10-13T00:38:24;99973.81;;;5.24;100.00
25658;BME280;13517;59.320;18.042;2023-10-13T00:40:49;99980.75;;;5.28;100.00
25658;BME280;13517;59.320;18.042;2023-10-13T00:43:20;99992.34;;;5.29;100.00
25658;BME280;13517;59.320;18.042;2023-10-13T00:45:56;100000.84;;;5.20;100.00
25658;BME280;13517;59.320;18.042;2023-10-13T00:48:42;99983.91;;;5.03;100.00
25658;BME280;13517;59.320;18.042;2023-10-13T00:51:17;99999.72;;;5.08;100.00
25658;BME280;13517;59.320;18.042;2023-10-13T00:53:58;100008.63;;;5.08;100.00
25658;BME280;13517;59.320;18.042;2023-10-13T00:56:25;99875.53;;;4.27;100.00
25658;BME280;13517;59.320;18.042;2023-10-13T00:58:56;99957.41;;;4.81;100.00
25658;BME280;13517;59.320;18.042;2023-10-13T01:01:26;99954.41;;;4.87;100.00
25658;BME280;13517;59.320;18.042;2023-10-13T01:03:58;100015.91;;;5.22;100.00
25658;BME280;13517;59.320;18.042;2023-10-13T01:06:33;100001.28;;;5.12;100.00
25658;BME280;13517;59.320;18.042;2023-10-13T01:09:04;99989.78;;;5.10;100.00
25658;BME280;13517;59.320;18.042;2023-10-13T01:11:45;100022.81;;;5.26;100.00
25658;BME280;13517;59.320;18.042;2023-10-13T01:14:14;100021.00;;;5.27;100.00
25658;BME280;13517;59.320;18.042;2023-10-13T01:16:44;99931.31;;;4.68;100.00
25658;BME280;13517;59.320;18.042;2023-10-13T01:19:13;100021.94;;;5.26;100.00
25658;BME280;13517;59.320;18.042;2023-10-13T01:21:42;99955.19;;;4.89;100.00
25658;BME280;13517;59.320;18.042;2023-10-13T01:24:09;100026.72;;;5.37;100.00
25658;BME280;13517;59.320;18.042;2023-10-13T01:26:35;99903.06;;;4.62;100.00
25658;BME280;13517;59.320;18.042;2023-10-13T01:29:06;99992.56;;;5.24;100.00
25658;BME280;13517;59.320;18.042;2023-10-13T01:31:42;100049.28;;;5.49;100.00
25658;BME280;13517;59.320;18.042;2023-10-13T01:34:20;100030.97;;;5.41;100.00
25658;BME280;13517;59.320;18.042;2023-10-13T01:36:49;100020.59;;;5.35;100.00
25658;BME280;13517;59.320;18.042;2023-10-13T01:39:22;99894.34;;;4.59;100.00
25658;BME280;13517;59.320;18.042;2023-10-13T01:42:01;100044.88;;;5.48;100.00
25658;BME280;13517;59.320;18.042;2023-10-13T01:44:27;100036.00;;;5.47;100.00
25658;BME280;13517;59.320;18.042;2023-10-13T01:46:58;99996.03;;;5.26;100.00
25658;BME280;13517;59.320;18.042;2023-10-13T01:49:27;100010.84;;;5.34;100.00
25658;BME280;13517;59.320;18.042;2023-10-13T01:51:52;99995.59;;;5.18;100.00
25658;BME280;13517;59.320;18.042;2023-10-13T01:54:18;100032.44;;;5.47;100.00
25658;BME280;13517;59.320;18.042;2023-10-13T01:56:43;100039.78;;;5.43;100.00
25658;BME280;13517;59.320;18.042;2023-10-13T01:59:10;100022.38;;;5.34;100.00
25658;BME280;13517;59.320;18.042;2023-10-13T02:01:35;100046.09;;;5.42;100.00
25658;BME280;13517;59.320;18.042;2023-10-13T02:04:01;100061.22;;;5.43;100.00
25658;BME280;13517;59.320;18.042;2023-10-13T02:06:31;100046.03;;;5.43;100.00
25658;BME280;13517;59.320;18.042;2023-10-13T02:09:05;100041.50;;;5.44;100.00
25658;BME280;13517;59.320;18.042;2023-10-13T02:11:38;100012.44;;;5.20;100.00
25658;BME280;13517;59.320;18.042;2023-10-13T02:14:03;100045.66;;;5.34;100.00
25658;BME280;13517;59.320;18.042;2023-10-13T02:16:29;99967.16;;;4.82;100.00
25658;BME280;13517;59.320;18.042;2023-10-13T02:18:56;100039.03;;;5.23;100.00
25658;BME280;13517;59.320;18.042;2023-10-13T02:21:23;99974.03;;;4.70;100.00
25658;BME280;13517;59.320;18.042;2023-10-13T02:23:56;100028.38;;;5.06;100.00
25658;BME280;13517;59.320;18.042;2023-10-13T02:26:26;100053.25;;;5.25;100.00
25658;BME280;13517;59.320;18.042;2023-10-13T02:29:04;100015.50;;;4.96;100.00
25658;BME280;13517;59.320;18.042;2023-10-13T02:31:40;100008.38;;;4.95;100.00
25658;BME280;13517;59.320;18.042;2023-10-13T02:34:06;100023.09;;;5.04;100.00
25658;BME280;13517;59.320;18.042;2023-10-13T02:36:38;100060.63;;;5.20;100.00
25658;BME280;13517;59.320;18.042;2023-10-13T02:39:17;100030.88;;;5.09;100.00
25658;BME280;13517;59.320;18.042;2023-10-13T02:41:50;100025.31;;;4.96;100.00
25658;BME280;13517;59.320;18.042;2023-10-13T02:44:16;100029.78;;;4.95;100.00
25658;BME280;13517;59.320;18.042;2023-10-13T02:46:57;100041.00;;;5.03;100.00
25658;BME280;13517;59.320;18.042;2023-10-13T02:49:26;100048.66;;;5.10;100.00
25658;BME280;13517;59.320;18.042;2023-10-13T02:51:53;100052.22;;;5.10;100.00
25658;BME280;13517;59.320;18.042;2023-10-13T02:54:20;100062.16;;;5.08;100.00
25658;BME280;13517;59.320;18.042;2023-10-13T02:56:46;100055.94;;;5.08;100.00
25658;BME280;13517;59.320;18.042;2023-10-13T02:59:25;100059.56;;;5.07;100.00
25658;BME280;13517;59.320;18.042;2023-10-13T03:02:01;100061.28;;;5.08;100.00
25658;BME280;13517;59.320;18.042;2023-10-13T03:04:32;100043.19;;;4.95;100.00
25658;BME280;13517;59.320;18.042;2023-10-13T03:06:58;100055.53;;;4.98;100.00
25658;BME280;13517;59.320;18.042;2023-10-13T03:09:25;100045.72;;;4.98;100.00
25658;BME280;13517;59.320;18.042;2023-10-13T03:11:50;100046.72;;;4.96;100.00
25658;BME280;13517;59.320;18.042;2023-10-13T03:14:17;100047.50;;;4.98;100.00
25658;BME280;13517;59.320;18.042;2023-10-13T03:17:00;100023.53;;;4.79;100.00
25658;BME280;13517;59.320;18.042;2023-10-13T03:19:34;100041.63;;;4.91;100.00
25658;BME280;13517;59.320;18.042;2023-10-13T03:22:04;100003.22;;;4.57;100.00
25658;BME280;13517;59.320;18.042;2023-10-13T03:24:38;100016.38;;;4.61;100.00
25658;BME280;13517;59.320;18.042;2023-10-13T03:27:10;100043.34;;;4.74;100.00
25658;BME280;13517;59.320;18.042;2023-10-13T03:29:39;100066.34;;;4.79;100.00
25658;BME280;13517;59.320;18.042;2023-10-13T03:32:12;100024.81;;;4.54;100.00
25658;BME280;13517;59.320;18.042;2023-10-13T03:34:42;100021.50;;;4.48;100.00
25658;BME280;13517;59.320;18.042;2023-10-13T03:37:30;100019.47;;;4.54;100.00
25658;BME280;13517;59.320;18.042;2023-10-13T03:40:05;100042.88;;;4.66;100.00
25658;BME280;13517;59.320;18.042;2023-10-13T03:45:26;100043.28;;;4.58;100.00
25658;BME280;13517;59.320;18.042;2023-10-13T03:47:52;99983.00;;;4.16;100.00
25658;BME280;13517;59.320;18.042;2023-10-13T03:50:18;100022.56;;;4.44;100.00
25658;BME280;13517;59.320;18.042;2023-10-13T03:52:58;100046.34;;;4.50;100.00
25658;BME280;13517;59.320;18.042;2023-10-13T03:55:27;100063.09;;;4.54;100.00
25658;BME280;13517;59.320;18.042;2023-10-13T03:57:53;100036.91;;;4.43;100.00
25658;BME280;13517;59.320;18.042;2023-10-13T04:00:20;100040.53;;;4.42;100.00
25658;BME280;13517;59.320;18.042;2023-10-13T04:02:56;100045.31;;;4.53;100.00
25658;BME280;13517;59.320;18.042;2023-10-13T04:05:30;100056.72;;;4.57;100.00
25658;BME280;13517;59.320;18.042;2023-10-13T04:08:08;99957.91;;;4.01;100.00
25658;BME280;13517;59.320;18.042;2023-10-13T04:10:48;100054.28;;;4.52;100.00
25658;BME280;13517;59.320;18.042;2023-10-13T04:13:17;100048.25;;;4.48;100.00
25658;BME280;13517;59.320;18.042;2023-10-13T04:16:01;100045.88;;;4.42;100.00
25658;BME280;13517;59.320;18.042;2023-10-13T04:18:49;100052.22;;;4.40;100.00
25658;BME280;13517;59.320;18.042;2023-10-13T04:21:24;99982.72;;;4.03;100.00
25658;BME280;13517;59.320;18.042;2023-10-13T04:24:09;100032.31;;;4.45;100.00
25658;BME280;13517;59.320;18.042;2023-10-13T04:26:44;100003.50;;;4.15;100.00
25658;BME280;13517;59.320;18.042;2023-10-13T04:29:29;100061.00;;;4.61;100.00
25658;BME280;13517;59.320;18.042;2023-10-13T04:32:16;100063.97;;;4.55;100.00
25658;BME280;13517;59.320;18.042;2023-10-13T04:34:57;100066.00;;;4.49;100.00
25658;BME280;13517;59.320;18.042;2023-10-13T04:37:37;100066.25;;;4.45;100.00
25658;BME280;13517;59.320;18.042;2023-10-13T04:40:21;100037.38;;;4.34;100.00
25658;BME280;13517;59.320;18.042;2023-10-13T04:42:50;100031.91;;;4.35;100.00
25658;BME280;13517;59.320;18.042;2023-10-13T04:45:22;100041.16;;;4.47;100.00
25658;BME280;13517;59.320;18.042;2023-10-13T04:48:00;100057.75;;;4.54;100.00
25658;BME280;13517;59.320;18.042;2023-10-13T04:50:46;100053.81;;;4.44;100.00
25658;BME280;13517;59.320;18.042;2023-10-13T04:53:15;100062.25;;;4.54;100.00
25658;BME280;13517;59.320;18.042;2023-10-13T04:55:59;100029.66;;;4.28;100.00
25658;BME280;13517;59.320;18.042;2023-10-13T04:58:33;100034.81;;;4.31;100.00
25658;BME280;13517;59.320;18.042;2023-10-13T05:01:04;100061.53;;;4.50;100.00
25658;BME280;13517;59.320;18.042;2023-10-13T05:03:49;100003.44;;;4.17;100.00
25658;BME280;13517;59.320;18.042;2023-10-13T05:06:39;100002.81;;;4.12;100.00
25658;BME280;13517;59.320;18.042;2023-10-13T05:09:07;99957.25;;;3.95;100.00
25658;BME280;13517;59.320;18.042;2023-10-13T05:11:51;100040.28;;;4.47;100.00
25658;BME280;13517;59.320;18.042;2023-10-13T05:14:38;99973.78;;;4.04;100.00
25658;BME280;13517;59.320;18.042;2023-10-13T05:17:22;100051.56;;;4.54;100.00
25658;BME280;13517;59.320;18.042;2023-10-13T05:20:06;100019.59;;;4.33;100.00
25658;BME280;13517;59.320;18.042;2023-10-13T05:22:50;100048.94;;;4.52;100.00
25658;BME280;13517;59.320;18.042;2023-10-13T05:25:36;99965.69;;;4.05;100.00
25658;BME280;13517;59.320;18.042;2023-10-13T05:28:20;100017.69;;;4.53;100.00
25658;BME280;13517;59.320;18.042;2023-10-13T05:31:04;99993.47;;;4.38;100.00
25658;BME280;13517;59.320;18.042;2023-10-13T05:33:48;100011.56;;;4.50;100.00
25658;BME280;13517;59.320;18.042;2023-10-13T05:36:33;100024.94;;;4.50;100.00
25658;BME280;13517;59.320;18.042;2023-10-13T05:39:17;100032.91;;;4.52;100.00
25658;BME280;13517;59.320;18.042;2023-10-13T05:42:01;100030.47;;;4.47;100.00
25658;BME280;13517;59.320;18.042;2023-10-13T05:44:45;99955.06;;;4.04;100.00
25658;BME280;13517;59.320;18.042;2023-10-13T05:47:29;100028.56;;;4.49;100.00
25658;BME280;13517;59.320;18.042;2023-10-13T05:50:07;100035.66;;;4.50;100.00
25658;BME280;13517;59.320;18.042;2023-10-13T05:52:45;99976.53;;;4.02;100.00
25658;BME280;13517;59.320;18.042;2023-10-13T05:55:21;99973.47;;;4.10;100.00
25658;BME280;13517;59.320;18.042;2023-10-13T05:58:06;100034.06;;;4.46;100.00
25658;BME280;13517;59.320;18.042;2023-10-13T06:00:50;100022.81;;;4.40;100.00
25658;BME280;13517;59.320;18.042;2023-10-13T06:03:33;100031.38;;;4.46;100.00
25658;BME280;13517;59.320;18.042;2023-10-13T06:06:17;100044.44;;;4.53;100.00
25658;BME280;13517;59.320;18.042;2023-10-13T06:09:01;100035.66;;;4.50;100.00
25658;BME280;13517;59.320;18.042;2023-10-13T06:11:45;100041.22;;;4.63;100.00
25658;BME280;13517;59.320;18.042;2023-10-13T06:14:29;100051.31;;;4.76;100.00
25658;BME280;13517;59.320;18.042;2023-10-13T06:17:13;100057.13;;;4.84;100.00
25658;BME280;13517;59.320;18.042;2023-10-13T06:19:57;100052.66;;;4.85;100.00
25658;BME280;13517;59.320;18.042;2023-10-13T06:22:41;100059.25;;;4.95;100.00
25658;BME280;13517;59.320;18.042;2023-10-13T06:25:25;100048.25;;;4.84;100.00
25658;BME280;13517;59.320;18.042;2023-10-13T06:28:08;100060.03;;;4.97;100.00
25658;BME280;13517;59.320;18.042;2023-10-13T06:30:57;100081.59;;;4.94;100.00
25658;BME280;13517;59.320;18.042;2023-10-13T06:33:23;100072.47;;;4.98;100.00
25658;BME280;13517;59.320;18.042;2023-10-13T06:35:57;100048.78;;;4.90;100.00
25658;BME280;13517;59.320;18.042;2023-10-13T06:38:23;100002.22;;;4.59;100.00
25658;BME280;13517;59.320;18.042;2023-10-13T06:40:49;100052.41;;;4.89;100.00
25658;BME280;13517;59.320;18.042;2023-10-13T06:43:16;100063.81;;;4.93;100.00
25658;BME280;13517;59.320;18.042;2023-10-13T06:45:43;100033.13;;;4.83;100.00
25658;BME280;13517;59.320;18.042;2023-10-13T06:48:09;100063.09;;;4.89;100.00
25658;BME280;13517;59.320;18.042;2023-10-13T06:50:39;100071.28;;;5.04;100.00
25658;BME280;13517;59.320;18.042;2023-10-13T06:53:07;100016.00;;;4.69;100.00
25658;BME280;13517;59.320;18.042;2023-10-13T06:55:32;100077.34;;;5.08;100.00
25658;BME280;13517;59.320;18.042;2023-10-13T06:58:03;100072.00;;;5.08;100.00
25658;BME280;13517;59.320;18.042;2023-10-13T07:00:32;100029.19;;;4.90;100.00
25658;BME280;13517;59.320;18.042;2023-10-13T07:03:04;100056.69;;;5.10;100.00
25658;BME280;13517;59.320;18.042;2023-10-13T07:05:37;100071.28;;;5.22;100.00
25658;BME280;13517;59.320;18.042;2023-10-13T07:08:07;100059.75;;;5.20;100.00
25658;BME280;13517;59.320;18.042;2023-10-13T07:10:34;100079.97;;;5.43;100.00
25658;BME280;13517;59.320;18.042;2023-10-13T07:13:17;100063.25;;;5.38;100.00
25658;BME280;13517;59.320;18.042;2023-10-13T07:15:45;100074.72;;;5.57;100.00
25658;BME280;13517;59.320;18.042;2023-10-13T07:18:16;100019.00;;;5.30;100.00
25658;BME280;13517;59.320;18.042;2023-10-13T07:20:48;100089.28;;;5.85;100.00
25658;BME280;13517;59.320;18.042;2023-10-13T07:23:14;100058.59;;;5.91;100.00
25658;BME280;13517;59.320;18.042;2023-10-13T07:28:20;100063.47;;;6.17;100.00
25658;BME280;13517;59.320;18.042;2023-10-13T07:30:45;100060.34;;;6.24;100.00
25658;BME280;13517;59.320;18.042;2023-10-13T07:33:20;100074.69;;;6.39;100.00
25658;BME280;13517;59.320;18.042;2023-10-13T07:35:47;100048.31;;;6.32;100.00
25658;BME280;13517;59.320;18.042;2023-10-13T07:38:16;100045.94;;;6.42;100.00
25658;BME280;13517;59.320;18.042;2023-10-13T07:40:42;99990.75;;;6.07;100.00
25658;BME280;13517;59.320;18.042;2023-10-13T07:43:16;100047.50;;;6.46;100.00
25658;BME280;13517;59.320;18.042;2023-10-13T07:45:46;99999.59;;;6.23;100.00
25658;BME280;13517;59.320;18.042;2023-10-13T07:48:15;100043.91;;;6.61;100.00
25658;BME280;13517;59.320;18.042;2023-10-13T07:50:45;100074.50;;;6.89;100.00
25658;BME280;13517;59.320;18.042;2023-10-13T07:53:11;100048.78;;;6.85;100.00
25658;BME280;13517;59.320;18.042;2023-10-13T07:55:52;100063.19;;;6.99;100.00
25658;BME280;13517;59.320;18.042;2023-10-13T07:58:22;100063.00;;;7.02;100.00
25658;BME280;13517;59.320;18.042;2023-10-13T08:00:51;100042.75;;;6.96;100.00
25658;BME280;13517;59.320;18.042;2023-10-13T08:03:35;100009.81;;;6.78;100.00
25658;BME280;13517;59.320;18.042;2023-10-13T08:06:08;100052.84;;;7.07;100.00
25658;BME280;13517;59.320;18.042;2023-10-13T08:08:37;100075.22;;;7.22;100.00
25658;BME280;13517;59.320;18.042;2023-10-13T08:11:13;100078.66;;;7.24;100.00
25658;BME280;13517;59.320;18.042;2023-10-13T08:13:47;100084.34;;;7.34;100.00
25658;BME280;13517;59.320;18.042;2023-10-13T08:16:19;100087.03;;;7.48;100.00
25658;BME280;13517;59.320;18.042;2023-10-13T08:18:52;100072.84;;;7.46;100.00
25658;BME280;13517;59.320;18.042;2023-10-13T08:21:18;100057.69;;;7.45;100.00
25658;BME280;13517;59.320;18.042;2023-10-13T08:23:50;99983.81;;;7.09;100.00
25658;BME280;13517;59.320;18.042;2023-10-13T08:26:18;99986.88;;;7.17;100.00
25658;BME280;13517;59.320;18.042;2023-10-13T08:29:16;100065.13;;;7.69;100.00
25658;BME280;13517;59.320;18.042;2023-10-13T08:31:51;100037.22;;;7.57;100.00
25658;BME280;13517;59.320;18.042;2023-10-13T08:34:29;100001.41;;;7.42;100.00
25658;BME280;13517;59.320;18.042;2023-10-13T08:36:55;100057.44;;;7.77;100.00
25658;BME280;13517;59.320;18.042;2023-10-13T08:39:21;100063.97;;;7.88;100.00
25658;BME280;13517;59.320;18.042;2023-10-13T08:42:05;100066.28;;;7.94;100.00
25658;BME280;13517;59.320;18.042;2023-10-13T08:44:44;100042.75;;;7.83;100.00
25658;BME280;13517;59.320;18.042;2023-10-13T08:47:18;100057.03;;;7.98;100.00
25658;BME280;13517;59.320;18.042;2023-10-13T08:49:46;99992.78;;;7.66;100.00
25658;BME280;13517;59.320;18.042;2023-10-13T08:52:17;100070.44;;;8.13;100.00
25658;BME280;13517;59.320;18.042;2023-10-13T08:55:04;100052.56;;;8.12;100.00
25658;BME280;13517;59.320;18.042;2023-10-13T08:57:50;100035.56;;;8.11;100.00
25658;BME280;13517;59.320;18.042;2023-10-13T09:00:19;99996.94;;;7.85;100.00
25658;BME280;13517;59.320;18.042;2023-10-13T09:03:13;100070.72;;;8.23;100.00
25658;BME280;13517;59.320;18.042;2023-10-13T09:05:54;100054.25;;;8.27;100.00
25658;BME280;13517;59.320;18.042;2023-10-13T09:08:29;100065.44;;;8.49;100.00
25658;BME280;13517;59.320;18.042;2023-10-13T09:11:02;100055.38;;;8.52;100.00
25658;BME280;13517;59.320;18.042;2023-10-13T09:13:38;100048.84;;;8.69;100.00
25658;BME280;13517;59.320;18.042;2023-10-13T09:16:13;100040.63;;;8.71;100.00
25658;BME280;13517;59.320;18.042;2023-10-13T09:18:47;100055.97;;;8.83;100.00
25658;BME280;13517;59.320;18.042;2023-10-13T09:21:15;100056.53;;;8.89;100.00
25658;BME280;13517;59.320;18.042;2023-10-13T09:24:13;100054.47;;;8.92;100.00
25658;BME280;13517;59.320;18.042;2023-10-13T09:26:58;99984.97;;;8.58;100.00
25658;BME280;13517;59.320;18.042;2023-10-13T09:29:27;100051.38;;;8.98;100.00
25658;BME280;13517;59.320;18.042;2023-10-13T09:32:02;100012.69;;;8.87;100.00
25658;BME280;13517;59.320;18.042;2023-10-13T09:34:28;99979.16;;;8.65;100.00
25658;BME280;13517;59.320;18.042;2023-10-13T09:37:00;100037.56;;;9.03;100.00
25658;BME280;13517;59.320;18.042;2023-10-13T09:39:28;99992.81;;;8.75;100.00
25658;BME280;13517;59.320;18.042;2023-10-13T09:42:10;100033.16;;;9.02;100.00
25658;BME280;13517;59.320;18.042;2023-10-13T09:44:38;100029.50;;;9.03;100.00
25658;BME280;13517;59.320;18.042;2023-10-13T09:47:09;100027.22;;;9.10;100.00
25658;BME280;13517;59.320;18.042;2023-10-13T09:49:45;99984.00;;;8.85;100.00
25658;BME280;13517;59.320;18.042;2023-10-13T09:52:19;100004.69;;;8.98;100.00
25658;BME280;13517;59.320;18.042;2023-10-13T09:55:09;100016.88;;;9.17;100.00
25658;BME280;13517;59.320;18.042;2023-10-13T09:57:40;99985.53;;;9.16;100.00
25658;BME280;13517;59.320;18.042;2023-10-13T10:00:15;99979.47;;;9.25;100.00
25658;BME280;13517;59.320;18.042;2023-10-13T10:03:11;100007.13;;;9.53;100.00
25658;BME280;13517;59.320;18.042;2023-10-13T10:06:05;99971.25;;;9.39;100.00
25658;BME280;13517;59.320;18.042;2023-10-13T10:08:33;100003.91;;;9.61;100.00
25658;BME280;13517;59.320;18.042;2023-10-13T10:16:15;99987.59;;;9.62;100.00
25658;BME280;13517;59.320;18.042;2023-10-13T10:18:45;99991.16;;;9.63;100.00
25658;BME280;13517;59.320;18.042;2023-10-13T10:21:11;99982.34;;;9.61;100.00
25658;BME280;13517;59.320;18.042;2023-10-13T10:23:37;99996.94;;;9.70;100.00
25658;BME280;13517;59.320;18.042;2023-10-13T10:26:15;99965.50;;;9.57;100.00
25658;BME280;13517;59.320;18.042;2023-10-13T10:28:45;99985.31;;;9.69;100.00
25658;BME280;13517;59.320;18.042;2023-10-13T10:31:11;99995.25;;;9.68;100.00
25658;BME280;13517;59.320;18.042;2023-10-13T10:33:42;99989.63;;;9.72;100.00
25658;BME280;13517;59.320;18.042;2023-10-13T10:36:08;99973.66;;;9.68;100.00
25658;BME280;13517;59.320;18.042;2023-10-13T10:38:54;99973.44;;;9.72;100.00
25658;BME280;13517;59.320;18.042;2023-10-13T10:41:28;99933.94;;;9.71;100.00
25658;BME280;13517;59.320;18.042;2023-10-13T10:44:15;99965.41;;;9.83;100.00
25658;BME280;13517;59.320;18.042;2023-10-13T10:47:11;99960.78;;;9.85;100.00
25658;BME280;13517;59.320;18.042;2023-10-13T10:49:44;99923.78;;;9.74;100.00
25658;BME280;13517;59.320;18.042;2023-10-13T10:52:10;99947.16;;;9.87;100.00
25658;BME280;13517;59.320;18.042;2023-10-13T10:54:43;99941.47;;;9.78;100.00
25658;BME280;13517;59.320;18.042;2023-10-13T10:57:09;99937.34;;;9.86;100.00
25658;BME280;13517;59.320;18.042;2023-10-13T10:59:43;99915.59;;;9.76;100.00
25658;BME280;13517;59.320;18.042;2023-10-13T11:02:10;99929.97;;;9.76;100.00
25658;BME280;13517;59.320;18.042;2023-10-13T11:04:41;99935.00;;;9.81;100.00
25658;BME280;13517;59.320;18.042;2023-10-13T11:07:23;99915.84;;;9.73;100.00
25658;BME280;13517;59.320;18.042;2023-10-13T11:09:49;99903.53;;;9.68;100.00
25658;BME280;13517;59.320;18.042;2023-10-13T11:12:18;99897.31;;;9.68;100.00
25658;BME280;13517;59.320;18.042;2023-10-13T11:15:04;99902.75;;;9.79;100.00
25658;BME280;13517;59.320;18.042;2023-10-13T11:17:51;99916.19;;;9.92;100.00
25658;BME280;13517;59.320;18.042;2023-10-13T11:20:20;99873.69;;;9.83;100.00
25658;BME280;13517;59.320;18.042;2023-10-13T11:22:58;99865.84;;;9.80;100.00
25658;BME280;13517;59.320;18.042;2023-10-13T11:25:26;99888.50;;;10.02;100.00
25658;BME280;13517;59.320;18.042;2023-10-13T11:27:58;99890.38;;;10.13;100.00
25658;BME280;13517;59.320;18.042;2023-10-13T11:30:25;99883.63;;;10.18;100.00
25658;BME280;13517;59.320;18.042;2023-10-13T11:35:39;99862.31;;;10.15;100.00
25658;BME280;13517;59.320;18.042;2023-10-13T11:41:10;99875.31;;;10.21;100.00
25658;BME280;13517;59.320;18.042;2023-10-13T11:43:44;99870.31;;;10.28;100.00
25658;BME280;13517;59.320;18.042;2023-10-13T11:46:17;99852.28;;;10.29;100.00
25658;BME280;13517;59.320;18.042;2023-10-13T11:49:10;99854.00;;;10.30;100.00
25658;BME280;13517;59.320;18.042;2023-10-13T11:51:46;99845.16;;;10.28;100.00
25658;BME280;13517;59.320;18.042;2023-10-13T11:54:15;99745.88;;;9.61;100.00
25658;BME280;13517;59.320;18.042;2023-10-13T11:56:45;99848.13;;;10.36;100.00
25658;BME280;13517;59.320;18.042;2023-10-13T11:59:11;99812.50;;;10.19;100.00
25658;BME280;13517;59.320;18.042;2023-10-13T12:01:46;99843.56;;;10.36;100.00
25658;BME280;13517;59.320;18.042;2023-10-13T12:04:30;99840.50;;;10.41;100.00
25658;BME280;13517;59.320;18.042;2023-10-13T12:07:08;99825.16;;;10.42;100.00
25658;BME280;13517;59.320;18.042;2023-10-13T12:09:47;99823.63;;;10.51;100.00
25658;BME280;13517;59.320;18.042;2023-10-13T12:12:24;99828.03;;;10.52;100.00
25658;BME280;13517;59.320;18.042;2023-10-13T12:14:50;99799.81;;;10.44;100.00
25658;BME280;13517;59.320;18.042;2023-10-13T12:20:02;99810.88;;;10.64;100.00
25658;BME280;13517;59.320;18.042;2023-10-13T12:22:35;99745.53;;;10.36;100.00
25658;BME280;13517;59.320;18.042;2023-10-13T12:25:01;99794.41;;;10.67;100.00
25658;BME280;13517;59.320;18.042;2023-10-13T12:27:30;99717.81;;;10.22;100.00
25658;BME280;13517;59.320;18.042;2023-10-13T12:30:11;99768.38;;;10.55;100.00
25658;BME280;13517;59.320;18.042;2023-10-13T12:32:40;99782.25;;;10.61;99.20
25658;BME280;13517;59.320;18.042;2023-10-13T12:35:10;99681.72;;;10.01;98.35
25658;BME280;13517;59.320;18.042;2023-10-13T12:37:35;99745.09;;;10.42;98.19
25658;BME280;13517;59.320;18.042;2023-10-13T12:40:01;99754.75;;;10.45;97.50
25658;BME280;13517;59.320;18.042;2023-10-13T12:42:45;99743.09;;;10.44;97.04
25658;BME280;13517;59.320;18.042;2023-10-13T12:45:29;99682.47;;;10.03;97.02
25658;BME280;13517;59.320;18.042;2023-10-13T12:48:13;99741.63;;;10.52;97.05
25658;BME280;13517;59.320;18.042;2023-10-13T12:51:00;99724.72;;;10.49;96.98
25658;BME280;13517;59.320;18.042;2023-10-13T12:53:48;99730.94;;;10.61;97.18
25658;BME280;13517;59.320;18.042;2023-10-13T12:56:14;99690.81;;;10.45;97.06
25658;BME280;13517;59.320;18.042;2023-10-13T12:58:41;99712.38;;;10.68;96.17
25658;BME280;13517;59.320;18.042;2023-10-13T13:01:07;99713.38;;;10.67;96.42
25658;BME280;13517;59.320;18.042;2023-10-13T13:03:32;99698.03;;;10.68;96.20
25658;BME280;13517;59.320;18.042;2023-10-13T13:05:58;99709.84;;;10.67;96.83
25658;BME280;13517;59.320;18.042;2023-10-13T13:08:24;99657.44;;;10.46;96.21
25658;BME280;13517;59.320;18.042;2023-10-13T13:10:50;99695.22;;;10.58;95.49
25658;BME280;13517;59.320;18.042;2023-10-13T13:13:15;99595.84;;;10.17;95.63
25658;BME280;13517;59.320;18.042;2023-10-13T13:15:42;99670.78;;;10.59;95.01
25658;BME280;13517;59.320;18.042;2023-10-13T13:18:08;99654.97;;;10.55;95.11
25658;BME280;13517;59.320;18.042;2023-10-13T13:20:39;99661.13;;;10.57;95.48
25658;BME280;13517;59.320;18.042;2023-10-13T13:23:08;99624.06;;;10.36;95.79
25658;BME280;13517;59.320;18.042;2023-10-13T13:25:37;99643.31;;;10.54;96.26
25658;BME280;13517;59.320;18.042;2023-10-13T13:28:08;99643.44;;;10.53;96.53
25658;BME280;13517;59.320;18.042;2023-10-13T13:30:35;99631.53;;;10.44;97.00
25658;BME280;13517;59.320;18.042;2023-10-13T13:33:03;99630.69;;;10.43;97.56
25658;BME280;13517;59.320;18.042;2023-10-13T13:35:41;99608.25;;;10.31;97.66